createdAt,value
2018-06-11T00:04:58.535Z,22.20
2018-06-11T00:10:01.989Z,22.20
2018-06-11T00:15:05.434Z,22.10
2018-06-11T00:20:08.914Z,22.00
2018-06-11T00:25:12.182Z,22.00
2018-06-11T00:30:15.578Z,22.00
2018-06-11T00:35:18.900Z,22.10
2018-06-11T00:40:22.203Z,22.00
2018-06-11T00:45:26.496Z,21.80
2018-06-11T00:50:29.821Z,21.70
2018-06-11T00:55:44.314Z,21.30
2018-06-11T01:00:47.638Z,21.30
2018-06-11T01:05:51.089Z,21.30
2018-06-11T01:10:54.459Z,21.30
2018-06-11T01:15:57.847Z,21.20
2018-06-11T01:21:01.198Z,21.20
2018-06-11T01:26:05.669Z,21.10
2018-06-11T01:31:10.977Z,21.00
2018-06-11T01:36:15.348Z,21.00
2018-06-11T01:41:18.735Z,20.90
2018-06-11T01:46:22.110Z,20.90
2018-06-11T01:51:25.463Z,20.90
2018-06-11T01:56:28.801Z,20.80
2018-06-11T02:01:32.162Z,20.70
2018-06-11T02:06:35.527Z,20.60
2018-06-11T02:11:38.849Z,20.50
2018-06-11T02:16:42.192Z,20.50
2018-06-11T02:21:45.616Z,20.40
2018-06-11T02:26:49.022Z,20.30
2018-06-11T02:31:53.876Z,20.30
2018-06-11T02:36:58.700Z,20.10
2018-06-11T02:42:02.075Z,20.10
2018-06-11T02:47:05.569Z,20.10
2018-06-11T02:52:08.980Z,20.10
2018-06-11T02:57:12.337Z,20.10
2018-06-11T03:02:15.708Z,20.00
2018-06-11T03:07:19.026Z,20.10
2018-06-11T03:12:22.491Z,20.10
2018-06-11T03:17:25.872Z,19.90
2018-06-11T03:22:29.262Z,19.80
2018-06-11T03:27:32.591Z,19.80
2018-06-11T03:32:35.941Z,19.90
2018-06-11T03:37:39.995Z,19.90
2018-06-11T03:42:43.407Z,20.00
2018-06-11T03:47:46.897Z,19.80
2018-06-11T03:52:50.339Z,19.90
2018-06-11T03:57:53.703Z,19.90
2018-06-11T04:02:57.132Z,20.00
2018-06-11T04:08:00.506Z,20.10
2018-06-11T04:13:03.952Z,20.20
2018-06-11T04:18:07.339Z,20.10
2018-06-11T04:23:10.685Z,20.10
2018-06-11T04:28:14.127Z,20.30
2018-06-11T04:33:17.554Z,20.40
2018-06-11T04:38:20.933Z,20.40
2018-06-11T04:43:24.322Z,20.50
2018-06-11T04:48:27.686Z,20.70
2018-06-11T04:53:31.002Z,20.90
2018-06-11T04:58:34.302Z,21.00
2018-06-11T05:03:37.653Z,21.10
2018-06-11T05:08:40.961Z,21.20
2018-06-11T05:13:44.318Z,21.20
2018-06-11T05:18:47.894Z,21.20
2018-06-11T05:23:51.347Z,21.40
2018-06-11T05:28:54.840Z,21.40
2018-06-11T05:33:59.279Z,21.50
2018-06-11T05:39:02.734Z,21.70
2018-06-11T05:44:06.126Z,21.90
2018-06-11T05:49:09.563Z,22.00
2018-06-11T05:54:12.887Z,22.10
2018-06-11T05:59:16.259Z,22.10
2018-06-11T06:04:19.671Z,22.30
2018-06-11T06:09:23.485Z,22.40
2018-06-11T06:14:28.935Z,22.80
2018-06-11T06:19:32.447Z,23.00
2018-06-11T06:24:35.915Z,23.00
2018-06-11T06:29:39.464Z,22.90
2018-06-11T06:34:43.061Z,23.20
2018-06-11T06:39:46.430Z,23.40
2018-06-11T06:44:50.511Z,23.60
2018-06-11T06:49:53.972Z,23.70
2018-06-11T06:54:57.387Z,24.00
2018-06-11T07:00:00.868Z,24.20
2018-06-11T07:05:04.358Z,24.30
2018-06-11T07:10:07.839Z,24.50
2018-06-11T07:15:11.287Z,24.90
2018-06-11T07:20:14.775Z,25.50
2018-06-11T07:25:18.155Z,25.70
2018-06-11T07:30:21.622Z,25.70
2018-06-11T07:35:25.064Z,25.60
2018-06-11T07:40:28.427Z,25.80
2018-06-11T07:45:31.845Z,25.80
2018-06-11T07:50:35.222Z,26.00
2018-06-11T07:55:38.564Z,26.30
2018-06-11T08:00:42.013Z,26.50
2018-06-11T08:05:45.406Z,26.70
2018-06-11T08:10:48.849Z,26.60
2018-06-11T08:15:53.291Z,26.60
2018-06-11T08:20:56.661Z,26.70
2018-06-11T08:26:00.097Z,27.20
2018-06-11T08:31:03.558Z,27.40
2018-06-11T08:36:06.989Z,27.40
2018-06-11T08:41:10.382Z,27.20
2018-06-11T08:46:13.766Z,27.40
2018-06-11T08:51:17.120Z,27.50
2018-06-11T08:56:20.917Z,27.90
2018-06-11T09:01:24.294Z,28.20
2018-06-11T09:06:27.706Z,28.20
2018-06-11T09:11:31.276Z,28.00
2018-06-11T09:16:34.620Z,28.10
2018-06-11T09:21:38.023Z,27.80
2018-06-11T09:26:41.534Z,27.80
2018-06-11T09:31:44.894Z,28.10
2018-06-11T09:36:48.339Z,27.90
2018-06-11T09:41:51.661Z,27.80
2018-06-11T09:46:55.328Z,28.20
2018-06-11T09:51:58.822Z,28.50
2018-06-11T09:57:02.230Z,29.10
2018-06-11T10:02:05.607Z,29.80
2018-06-11T10:07:08.996Z,30.30
2018-06-11T10:12:12.411Z,30.40
2018-06-11T10:17:15.759Z,30.00
2018-06-11T10:22:20.323Z,29.80
2018-06-11T10:27:23.719Z,28.80
2018-06-11T10:32:27.099Z,28.80
2018-06-11T10:37:30.478Z,29.00
2018-06-11T10:42:34.486Z,29.70
2018-06-11T10:47:37.864Z,30.00
2018-06-11T10:52:41.205Z,30.10
2018-06-11T10:57:45.485Z,29.40
2018-06-11T11:02:48.846Z,29.50
2018-06-11T11:07:52.242Z,29.50
2018-06-11T11:12:56.192Z,29.80
2018-06-11T11:17:59.533Z,29.30
2018-06-11T11:23:02.984Z,29.20
2018-06-11T11:28:07.235Z,29.90
2018-06-11T11:33:12.067Z,30.00
2018-06-11T11:38:15.477Z,30.30
2018-06-11T11:43:20.216Z,30.70
2018-06-11T11:48:23.562Z,31.20
2018-06-11T11:53:26.923Z,31.40
2018-06-11T11:58:30.324Z,30.90
2018-06-11T12:03:33.706Z,30.20
2018-06-11T12:08:37.108Z,29.90
2018-06-11T12:13:40.421Z,29.70
2018-06-11T12:18:44.386Z,29.60
2018-06-11T12:23:48.723Z,29.30
2018-06-11T12:28:52.232Z,28.90
2018-06-11T12:33:55.763Z,28.50
2018-06-11T12:38:59.417Z,28.20
2018-06-11T12:44:03.140Z,27.90
2018-06-11T12:49:06.559Z,28.10
2018-06-11T12:54:10.239Z,28.00
2018-06-11T12:59:13.670Z,28.00
2018-06-11T13:04:17.236Z,27.70
2018-06-11T13:09:20.703Z,27.70
2018-06-11T13:14:24.126Z,27.50
2018-06-11T13:19:27.654Z,27.40
2018-06-11T13:24:31.260Z,27.30
2018-06-11T13:29:34.611Z,27.50
2018-06-11T13:34:38.851Z,27.50
2018-06-11T13:39:42.235Z,27.30
2018-06-11T13:44:45.841Z,26.90
2018-06-11T13:49:49.319Z,26.80
2018-06-11T13:54:53.017Z,26.50
2018-06-11T13:59:56.522Z,26.40
2018-06-11T14:05:00.068Z,26.20
2018-06-11T14:10:04.554Z,25.40
2018-06-11T14:15:08.306Z,25.10
2018-06-11T14:20:11.846Z,25.20
2018-06-11T14:25:15.235Z,24.90
2018-06-11T14:30:18.617Z,24.80
2018-06-11T14:35:22.144Z,24.70
2018-06-11T14:40:26.453Z,24.70
2018-06-11T14:45:29.945Z,24.70
2018-06-11T14:50:34.504Z,24.70
2018-06-11T14:55:38.751Z,24.70
2018-06-11T15:00:42.191Z,24.50
2018-06-11T15:05:45.578Z,24.30
2018-06-11T15:10:49.032Z,24.10
2018-06-11T15:15:52.578Z,23.80
2018-06-11T15:20:56.020Z,23.60
2018-06-11T15:25:59.826Z,23.50
2018-06-11T15:31:03.261Z,23.30
2018-06-11T15:36:06.740Z,23.10
2018-06-11T15:41:10.175Z,23.10
2018-06-11T15:46:13.646Z,22.80
2018-06-11T15:51:17.057Z,22.40
2018-06-11T15:56:20.502Z,22.10
2018-06-11T16:01:23.879Z,21.80
2018-06-11T16:06:28.015Z,21.50
2018-06-11T16:11:31.423Z,21.30
2018-06-11T16:16:34.902Z,21.00
2018-06-11T16:21:39.653Z,21.10
2018-06-11T16:26:45.059Z,20.90
2018-06-11T16:31:52.991Z,20.70
2018-06-11T16:36:59.888Z,20.60
2018-06-11T16:42:03.546Z,20.70
2018-06-11T16:47:07.452Z,20.60
2018-06-11T16:52:10.972Z,20.50
2018-06-11T16:57:14.462Z,20.40
2018-06-11T17:02:18.166Z,20.30
2018-06-11T17:07:21.684Z,20.20
2018-06-11T17:12:25.113Z,20.00
2018-06-11T17:17:28.582Z,19.80
2018-06-11T17:22:31.957Z,19.90
2018-06-11T17:27:38.076Z,19.90
2018-06-11T17:32:42.403Z,20.00
2018-06-11T17:37:45.801Z,20.10
2018-06-11T17:42:49.867Z,20.10
2018-06-11T17:47:53.300Z,20.20
2018-06-11T17:52:56.725Z,20.00
2018-06-11T17:58:00.140Z,20.00
2018-06-11T18:03:03.609Z,20.00
2018-06-11T18:08:08.142Z,19.80
2018-06-11T18:13:11.602Z,19.90
2018-06-11T18:18:15.322Z,19.80
2018-06-11T18:23:18.874Z,19.60
2018-06-11T18:28:22.768Z,19.60
2018-06-11T18:33:26.764Z,19.50
2018-06-11T18:38:31.256Z,19.60
2018-06-11T18:43:34.768Z,19.60
2018-06-11T18:48:39.515Z,19.60
2018-06-11T18:53:43.023Z,19.70
2018-06-11T18:58:47.237Z,19.70
2018-06-11T19:03:51.071Z,19.50
2018-06-11T19:08:54.691Z,19.50
2018-06-11T19:13:58.043Z,19.50
2018-06-11T19:19:01.489Z,19.60
2018-06-11T19:24:04.889Z,19.60
2018-06-11T19:29:08.250Z,19.50
2018-06-11T19:34:11.759Z,19.50
2018-06-11T19:39:15.114Z,19.30
2018-06-11T19:44:18.590Z,19.50
2018-06-11T19:49:22.087Z,19.30
2018-06-11T19:54:26.364Z,19.30
2018-06-11T19:59:30.075Z,19.40
2018-06-11T20:04:33.618Z,19.40
2018-06-11T20:09:37.200Z,19.30
2018-06-11T20:14:40.616Z,19.30
2018-06-11T20:19:44.167Z,19.40
2018-06-11T20:24:47.791Z,19.50
2018-06-11T20:29:51.209Z,19.40
2018-06-11T20:34:55.084Z,19.30
2018-06-11T20:39:58.728Z,19.20
2018-06-11T20:45:02.300Z,19.20
2018-06-11T20:50:05.836Z,19.10
2018-06-11T20:55:11.103Z,19.20
2018-06-11T21:00:14.538Z,19.10
2018-06-11T21:05:17.985Z,19.00
2018-06-11T21:10:21.490Z,18.90
2018-06-11T21:15:25.062Z,18.80
2018-06-11T21:20:29.177Z,18.70
2018-06-11T21:25:32.635Z,18.60
2018-06-11T21:30:36.039Z,18.50
2018-06-11T21:35:39.438Z,18.50
2018-06-11T21:40:43.526Z,18.40
2018-06-11T21:45:46.854Z,18.40
2018-06-11T21:55:53.711Z,18.10
2018-06-11T22:00:57.110Z,18.20
2018-06-11T22:06:00.486Z,18.40
2018-06-11T22:11:03.938Z,18.30
2018-06-11T22:16:07.321Z,18.30
2018-06-11T22:21:10.673Z,18.20
2018-06-11T22:26:14.159Z,18.40
2018-06-11T22:31:17.591Z,18.20
2018-06-11T22:36:20.939Z,18.20
2018-06-11T22:41:24.557Z,18.10
2018-06-11T22:46:27.953Z,18.20
2018-06-11T22:51:31.319Z,18.30
2018-06-11T22:56:34.751Z,18.20
2018-06-11T23:01:38.120Z,18.10
2018-06-11T23:06:41.640Z,18.00
2018-06-11T23:11:46.033Z,18.00
2018-06-11T23:16:49.402Z,17.90
2018-06-11T23:21:52.906Z,17.80
2018-06-11T23:26:56.264Z,17.80
2018-06-11T23:31:59.761Z,17.70
2018-06-11T23:37:04.070Z,17.60
2018-06-11T23:42:07.459Z,17.70
2018-06-11T23:47:10.867Z,17.50
2018-06-11T23:52:14.345Z,17.60
2018-06-11T23:57:17.671Z,17.70
